TimePST,TemperatureF,Dew PointF,Humidity,Sea Level PressureIn,VisibilityMPH,Wind Direction,Wind SpeedMPH,Gust SpeedMPH,PrecipitationIn,Events,Conditions,WindDirDegrees,DateUTC
1:51 AM,39.9,14.0,35,30.39,10.0,ENE,5.8,-,N/A,,Clear,70,2013-01-15 09:51:00
2:51 AM,39.0,15.1,38,30.39,10.0,NE,3.5,-,N/A,,Clear,50,2013-01-15 10:51:00
4:51 AM,37.9,16.0,41,30.39,10.0,Calm,Calm,-,N/A,,Clear,0,2013-01-15 12:51:00
5:51 AM,41.0,10.9,29,30.39,10.0,NNE,8.1,-,N/A,,Clear,30,2013-01-15 13:51:00
6:45 AM,32.0,21.2,64,30.33,10.0,North,5.8,-,N/A,,Mostly Cloudy,360,2013-01-15 14:45:00
6:51 AM,42.1,10.0,27,30.41,10.0,NNE,6.9,-,N/A,,Clear,30,2013-01-15 14:51:00
7:51 AM,44.1,12.0,27,30.43,10.0,NNE,6.9,-,N/A,,Clear,20,2013-01-15 15:51:00
8:51 AM,48.0,12.9,24,30.45,10.0,North,-9999.0,-,N/A,,Clear,0,2013-01-15 16:51:00
9:51 AM,53.1,14.0,21,30.46,10.0,Variable,4.6,-,N/A,,Clear,0,2013-01-15 17:51:00
10:51 AM,55.9,12.9,18,30.44,10.0,Calm,Calm,-,N/A,,Clear,0,2013-01-15 18:51:00
11:51 AM,55.0,28.0,35,30.40,10.0,West,12.7,-,N/A,,Clear,270,2013-01-15 19:51:00
1:51 PM,55.9,32.0,40,30.36,10.0,WNW,13.8,-,N/A,,Clear,290,2013-01-15 21:51:00
2:51 PM,55.9,35.1,45,30.35,10.0,WNW,16.1,-,N/A,,Clear,290,2013-01-15 22:51:00
3:51 PM,54.0,39.0,57,30.36,10.0,WNW,15.0,-,N/A,,Clear,290,2013-01-15 23:51:00
4:51 PM,52.0,41.0,66,30.36,10.0,WNW,15.0,-,N/A,,Clear,290,2013-01-16 00:51:00
5:51 PM,50.0,42.1,74,30.36,10.0,WNW,10.4,-,N/A,,Clear,290,2013-01-16 01:51:00
6:51 PM,48.0,41.0,77,30.38,10.0,WNW,5.8,-,N/A,,Clear,290,2013-01-16 02:51:00
7:51 PM,48.0,39.9,74,30.37,10.0,NW,5.8,-,N/A,,Clear,320,2013-01-16 03:51:00
8:51 PM,48.0,37.9,68,30.37,10.0,SSE,4.6,-,N/A,,Clear,160,2013-01-16 04:51:00
9:51 PM,45.0,35.1,68,30.37,10.0,Calm,Calm,-,N/A,,Clear,0,2013-01-16 05:51:00
11:51 PM,42.1,33.1,70,30.37,10.0,Calm,Calm,-,N/A,,Clear,0,2013-01-16 07:51:00